sensor_id;sensor_type;location;lat;lon;timestamp;pressure;altitude;pressure_sealevel;temperature;humidity
77526;BME280;66627;29.424;-98.496;2023-04-29T00:01:54;98257.25;;;16.44;64.23
77526;BME280;66627;29.424;-98.496;2023-04-29T00:04:20;98216.68;;;17.41;65.45
77526;BME280;66627;29.424;-98.496;2023-04-29T00:06:44;98170.89;;;16.98;65.47
77526;BME280;66627;29.424;-98.496;2023-04-29T00:09:09;98158.02;;;17.36;64.61
77526;BME280;66627;29.424;-98.496;2023-04-29T00:11:35;98164.19;;;17.39;62.71
77526;BME280;66627;29.424;-98.496;2023-04-29T00:14:00;98144.96;;;17.11;64.34
77526;BME280;66627;29.424;-98.496;2023-04-29T00:16:25;98134.80;;;17.74;63.96
77526;BME280;66627;29.424;-98.496;2023-04-29T00:18:50;98169.10;;;17.92;63.15
77526;BME280;66627;29.424;-98.496;2023-04-29T00:21:16;98174.28;;;18.36;63.54
77526;BME280;66627;29.424;-98.496;2023-04-29T00:23:41;98171.67;;;18.57;63.84
77526;BME280;66627;29.424;-98.496;2023-04-29T00:26:06;98175.42;;;18.11;62.47
77526;BME280;66627;29.424;-98.496;2023-04-29T00:28:31;98171.85;;;18.12;61.72
77526;BME280;66627;29.424;-98.496;2023-04-29T00:30:56;98162.40;;;18.14;62.78
77526;BME280;66627;29.424;-98.496;2023-04-29T00:33:21;98150.41;;;18.64;61.51
77526;BME280;66627;29.424;-98.496;2023-04-29T00:35:47;98144.61;;;18.06;62.49
77526;BME280;66627;29.424;-98.496;2023-04-29T00:38:12;98144.22;;;18.27;61.51
77526;BME280;66627;29.424;-98.496;2023-04-29T00:40:37;98141.97;;;18.70;62.91
77526;BME280;66627;29.424;-98.496;2023-04-29T00:43:02;98159.86;;;18.41;62.21
77526;BME280;66627;29.424;-98.496;2023-04-29T00:45:27;98171.15;;;17.92;63.01
77526;BME280;66627;29.424;-98.496;2023-04-29T00:47:53;98205.54;;;18.48;61.92
77526;BME280;66627;29.424;-98.496;2023-04-29T00:50:18;98231.67;;;18.75;62.79
77526;BME280;66627;29.424;-98.496;2023-04-29T00:52:43;98257.59;;;18.84;61.51
77526;BME280;66627;29.424;-98.496;2023-04-29T00:55:10;98277.50;;;19.65;60.59
77526;BME280;66627;29.424;-98.496;2023-04-29T00:57:34;98296.23;;;18.91;61.83
77526;BME280;66627;29.424;-98.496;2023-04-29T01:00:00;98305.74;;;18.89;61.83
77526;BME280;66627;29.424;-98.496;2023-04-29T01:02:25;98312.96;;;18.63;61.17
77526;BME280;66627;29.424;-98.496;2023-04-29T01:04:50;98323.50;;;19.10;61.56
77526;BME280;66627;29.424;-98.496;2023-04-29T01:07:18;98338.26;;;19.38;61.91
77526;BME280;66627;29.424;-98.496;2023-04-29T01:09:52;98347.42;;;19.10;60.45
77526;BME280;66627;29.424;-98.496;2023-04-29T01:12:14;98352.63;;;19.26;61.39
77526;BME280;66627;29.424;-98.496;2023-04-29T01:14:32;98346.86;;;19.61;60.47
77526;BME280;66627;29.424;-98.496;2023-04-29T01:17:04;98335.78;;;19.31;60.98
77526;BME280;66627;29.424;-98.496;2023-04-29T01:19:32;98336.95;;;19.41;61.13
77526;BME280;66627;29.424;-98.496;2023-04-29T01:21:48;98332.49;;;19.09;61.37
77526;BME280;66627;29.424;-98.496;2023-04-29T01:24:13;98340.38;;;18.84;59.30
77526;BME280;66627;29.424;-98.496;2023-04-29T01:26:39;98350.13;;;18.85;60.77
77526;BME280;66627;29.424;-98.496;2023-04-29T01:29:15;98358.88;;;18.82;57.18
77526;BME280;66627;29.424;-98.496;2023-04-29T01:31:35;98364.28;;;18.43;58.37
77526;BME280;66627;29.424;-98.496;2023-04-29T01:34:04;98380.75;;;18.60;58.68
77526;BME280;66627;29.424;-98.496;2023-04-29T01:36:28;98384.58;;;18.29;58.86
77526;BME280;66627;29.424;-98.496;2023-04-29T01:38:52;98401.29;;;18.14;55.82
77526;BME280;66627;29.424;-98.496;2023-04-29T01:41:14;98414.54;;;17.46;53.99
77526;BME280;66627;29.424;-98.496;2023-04-29T01:43:37;98429.25;;;17.61;57.99
77526;BME280;66627;29.424;-98.496;2023-04-29T01:46:02;98451.54;;;18.44;54.01
77526;BME280;66627;29.424;-98.496;2023-04-29T01:48:27;98466.23;;;18.03;55.31
77526;BME280;66627;29.424;-98.496;2023-04-29T01:50:51;98478.70;;;17.72;53.88
77526;BME280;66627;29.424;-98.496;2023-04-29T01:53:16;98481.74;;;17.34;54.23
77526;BME280;66627;29.424;-98.496;2023-04-29T01:55:42;98492.57;;;18.01;52.63
77526;BME280;66627;29.424;-98.496;2023-04-29T01:58:07;98495.65;;;17.92;54.98
77526;BME280;66627;29.424;-98.496;2023-04-29T02:00:33;98500.98;;;18.37;53.65
77526;BME280;66627;29.424;-98.496;2023-04-29T02:02:57;98504.64;;;17.55;53.24
77526;BME280;66627;29.424;-98.496;2023-04-29T02:05:23;98504.46;;;17.93;54.38
77526;BME280;66627;29.424;-98.496;2023-04-29T02:07:48;98518.79;;;18.25;53.49
77526;BME280;66627;29.424;-98.496;2023-04-29T02:10:13;98515.70;;;17.97;51.49
77526;BME280;66627;29.424;-98.496;2023-04-29T02:12:38;98528.45;;;17.83;52.52
77526;BME280;66627;29.424;-98.496;2023-04-29T02:15:05;98539.92;;;18.07;51.97
77526;BME280;66627;29.424;-98.496;2023-04-29T02:17:29;98542.30;;;18.27;50.90
77526;BME280;66627;29.424;-98.496;2023-04-29T02:19:55;98548.86;;;18.01;51.81
77526;BME280;66627;29.424;-98.496;2023-04-29T02:22:20;98563.28;;;17.18;50.49
77526;BME280;66627;29.424;-98.496;2023-04-29T02:24:45;98573.38;;;18.02;51.33
77526;BME280;66627;29.424;-98.496;2023-04-29T02:27:10;98586.94;;;17.66;50.99
77526;BME280;66627;29.424;-98.496;2023-04-29T02:29:35;98604.17;;;17.63;49.29
77526;BME280;66627;29.424;-98.496;2023-04-29T02:32:00;98609.80;;;17.69;49.38
77526;BME280;66627;29.424;-98.496;2023-04-29T02:34:25;98624.80;;;17.48;50.89
77526;BME280;66627;29.424;-98.496;2023-04-29T02:36:50;98641.18;;;17.39;49.63
77526;BME280;66627;29.424;-98.496;2023-04-29T02:39:16;98643.97;;;17.00;50.75
77526;BME280;66627;29.424;-98.496;2023-04-29T02:41:42;98660.53;;;16.87;52.91
77526;BME280;66627;29.424;-98.496;2023-04-29T02:44:06;98670.54;;;17.19;49.73
77526;BME280;66627;29.424;-98.496;2023-04-29T02:46:32;98680.08;;;17.17;49.56
77526;BME280;66627;29.424;-98.496;2023-04-29T02:48:56;98693.57;;;17.19;50.92
77526;BME280;66627;29.424;-98.496;2023-04-29T02:51:22;98709.74;;;17.28;49.91
77526;BME280;66627;29.424;-98.496;2023-04-29T02:53:47;98715.54;;;17.75;48.54
77526;BME280;66627;29.424;-98.496;2023-04-29T02:56:12;98717.91;;;16.93;50.08
77526;BME280;66627;29.424;-98.496;2023-04-29T02:58:37;98722.04;;;17.33;48.36
77526;BME280;66627;29.424;-98.496;2023-04-29T03:01:02;98732.51;;;17.09;49.16
77526;BME280;66627;29.424;-98.496;2023-04-29T03:03:28;98737.53;;;16.64;48.37
77526;BME280;66627;29.424;-98.496;2023-04-29T03:05:53;98743.84;;;16.64;49.19
77526;BME280;66627;29.424;-98.496;2023-04-29T03:08:18;98742.48;;;16.57;48.40
77526;BME280;66627;29.424;-98.496;2023-04-29T03:10:44;98738.32;;;16.70;48.76
77526;BME280;66627;29.424;-98.496;2023-04-29T03:13:08;98728.91;;;17.49;50.58
77526;BME280;66627;29.424;-98.496;2023-04-29T03:15:34;98731.73;;;17.00;48.31
77526;BME280;66627;29.424;-98.496;2023-04-29T03:17:59;98727.97;;;17.37;48.84
77526;BME280;66627;29.424;-98.496;2023-04-29T03:20:24;98738.71;;;17.10;48.11
77526;BME280;66627;29.424;-98.496;2023-04-29T03:22:49;98755.10;;;16.36;48.62
77526;BME280;66627;29.424;-98.496;2023-04-29T03:25:14;98754.05;;;16.75;49.00
77526;BME280;66627;29.424;-98.496;2023-04-29T03:27:41;98746.29;;;16.20;47.81
77526;BME280;66627;29.424;-98.496;2023-04-29T03:30:14;98763.50;;;16.73;47.80
77526;BME280;66627;29.424;-98.496;2023-04-29T03:32:31;98770.88;;;16.40;47.65
77526;BME280;66627;29.424;-98.496;2023-04-29T03:34:56;98773.61;;;15.42;48.75
77526;BME280;66627;29.424;-98.496;2023-04-29T03:37:21;98763.73;;;14.70;50.12
77526;BME280;66627;29.424;-98.496;2023-04-29T03:39:46;98748.46;;;16.11;49.09
77526;BME280;66627;29.424;-98.496;2023-04-29T03:42:11;98739.11;;;16.48;47.62
77526;BME280;66627;29.424;-98.496;2023-04-29T03:44:37;98745.63;;;17.10;47.98
77526;BME280;66627;29.424;-98.496;2023-04-29T03:47:02;98755.37;;;16.70;48.57
77526;BME280;66627;29.424;-98.496;2023-04-29T03:49:27;98760.52;;;16.84;48.99
77526;BME280;66627;29.424;-98.496;2023-04-29T03:51:52;98759.12;;;16.99;48.73
77526;BME280;66627;29.424;-98.496;2023-04-29T03:54:17;98762.40;;;16.42;48.24
77526;BME280;66627;29.424;-98.496;2023-04-29T03:56:42;98756.99;;;16.73;48.04
77526;BME280;66627;29.424;-98.496;2023-04-29T03:59:07;98745.76;;;15.66;48.40
77526;BME280;66627;29.424;-98.496;2023-04-29T04:01:33;98752.76;;;15.71;50.21
77526;BME280;66627;29.424;-98.496;2023-04-29T04:03:58;98752.35;;;15.59;48.78
77526;BME280;66627;29.424;-98.496;2023-04-29T04:06:23;98760.42;;;14.82;50.81
77526;BME280;66627;29.424;-98.496;2023-04-29T04:08:48;98742.73;;;14.83;49.22
77526;BME280;66627;29.424;-98.496;2023-04-29T04:11:13;98722.86;;;14.49;51.23
77526;BME280;66627;29.424;-98.496;2023-04-29T04:13:39;98728.79;;;14.02;50.70
77526;BME280;66627;29.424;-98.496;2023-04-29T04:16:04;98703.47;;;13.79;50.63
77526;BME280;66627;29.424;-98.496;2023-04-29T04:18:29;98722.62;;;15.09;51.26
77526;BME280;66627;29.424;-98.496;2023-04-29T04:20:54;98724.33;;;14.38;50.50
77526;BME280;66627;29.424;-98.496;2023-04-29T04:23:19;98742.23;;;14.39;50.32
77526;BME280;66627;29.424;-98.496;2023-04-29T04:25:46;98751.63;;;14.69;50.94
77526;BME280;66627;29.424;-98.496;2023-04-29T04:28:10;98756.46;;;14.39;51.10
77526;BME280;66627;29.424;-98.496;2023-04-29T04:30:35;98771.16;;;14.59;49.24
77526;BME280;66627;29.424;-98.496;2023-04-29T04:33:00;98791.61;;;14.78;50.61
77526;BME280;66627;29.424;-98.496;2023-04-29T04:35:25;98800.38;;;14.83;49.96
77526;BME280;66627;29.424;-98.496;2023-04-29T04:37:51;98809.16;;;14.72;48.91
77526;BME280;66627;29.424;-98.496;2023-04-29T04:40:16;98835.25;;;14.81;49.43
77526;BME280;66627;29.424;-98.496;2023-04-29T04:42:41;98836.56;;;14.72;48.27
77526;BME280;66627;29.424;-98.496;2023-04-29T04:45:07;98837.55;;;14.16;48.84
77526;BME280;66627;29.424;-98.496;2023-04-29T04:47:31;98853.77;;;14.80;49.13
77526;BME280;66627;29.424;-98.496;2023-04-29T04:49:56;98856.89;;;14.62;49.73
77526;BME280;66627;29.424;-98.496;2023-04-29T04:52:22;98861.46;;;14.83;48.67
77526;BME280;66627;29.424;-98.496;2023-04-29T04:54:47;98864.93;;;14.77;48.76
77526;BME280;66627;29.424;-98.496;2023-04-29T04:57:12;98874.61;;;14.87;48.37
77526;BME280;66627;29.424;-98.496;2023-04-29T04:59:37;98876.89;;;14.78;50.36
77526;BME280;66627;29.424;-98.496;2023-04-29T05:02:03;98859.04;;;14.28;48.19
77526;BME280;66627;29.424;-98.496;2023-04-29T05:04:27;98865.12;;;14.47;48.66
77526;BME280;66627;29.424;-98.496;2023-04-29T05:06:53;98870.69;;;15.05;47.41
77526;BME280;66627;29.424;-98.496;2023-04-29T05:09:18;98880.56;;;15.53;48.81
77526;BME280;66627;29.424;-98.496;2023-04-29T05:11:43;98878.86;;;15.34;47.78
77526;BME280;66627;29.424;-98.496;2023-04-29T05:14:08;98887.06;;;15.36;47.27
77526;BME280;66627;29.424;-98.496;2023-04-29T05:16:34;98904.00;;;14.96;49.44
77526;BME280;66627;29.424;-98.496;2023-04-29T05:18:59;98912.84;;;15.22;47.85
77526;BME280;66627;29.424;-98.496;2023-04-29T05:21:24;98913.88;;;15.38;47.21
77526;BME280;66627;29.424;-98.496;2023-04-29T05:23:49;98912.49;;;15.66;47.71
77526;BME280;66627;29.424;-98.496;2023-04-29T05:26:14;98916.34;;;15.18;47.31
77526;BME280;66627;29.424;-98.496;2023-04-29T05:28:39;98914.21;;;15.69;48.05
77526;BME280;66627;29.424;-98.496;2023-04-29T05:31:05;98911.30;;;14.83;47.88
77526;BME280;66627;29.424;-98.496;2023-04-29T05:33:30;98921.23;;;15.34;48.17
77526;BME280;66627;29.424;-98.496;2023-04-29T05:35:55;98923.45;;;14.38;48.24
77526;BME280;66627;29.424;-98.496;2023-04-29T05:38:20;98932.55;;;14.82;48.47
77526;BME280;66627;29.424;-98.496;2023-04-29T05:40:45;98943.18;;;14.89;46.97
77526;BME280;66627;29.424;-98.496;2023-04-29T05:43:11;98962.57;;;15.62;47.85
77526;BME280;66627;29.424;-98.496;2023-04-29T05:45:36;98964.80;;;15.02;46.67
77526;BME280;66627;29.424;-98.496;2023-04-29T05:48:01;98956.36;;;15.30;47.66
77526;BME280;66627;29.424;-98.496;2023-04-29T05:50:27;98958.22;;;14.78;47.33
77526;BME280;66627;29.424;-98.496;2023-04-29T05:52:51;98943.82;;;15.07;46.98
77526;BME280;66627;29.424;-98.496;2023-04-29T05:55:17;98948.71;;;15.08;46.87
77526;BME280;66627;29.424;-98.496;2023-04-29T05:57:42;98951.05;;;14.62;47.74
77526;BME280;66627;29.424;-98.496;2023-04-29T06:00:08;98947.98;;;14.50;47.45
77526;BME280;66627;29.424;-98.496;2023-04-29T06:02:32;98948.30;;;13.81;47.24
77526;BME280;66627;29.424;-98.496;2023-04-29T06:04:58;98966.25;;;14.40;46.03
77526;BME280;66627;29.424;-98.496;2023-04-29T06:07:23;98961.32;;;13.53;47.12
77526;BME280;66627;29.424;-98.496;2023-04-29T06:09:48;98957.14;;;13.40;46.66
77526;BME280;66627;29.424;-98.496;2023-04-29T06:12:13;98959.94;;;13.34;46.88
77526;BME280;66627;29.424;-98.496;2023-04-29T06:14:38;98959.27;;;13.84;47.11
77526;BME280;66627;29.424;-98.496;2023-04-29T06:17:03;98953.11;;;13.71;46.67
77526;BME280;66627;29.424;-98.496;2023-04-29T06:19:29;98953.53;;;13.98;47.12
77526;BME280;66627;29.424;-98.496;2023-04-29T06:21:54;98953.12;;;13.70;46.74
77526;BME280;66627;29.424;-98.496;2023-04-29T06:24:19;98966.96;;;14.07;46.12
77526;BME280;66627;29.424;-98.496;2023-04-29T06:26:44;98978.23;;;14.28;46.45
77526;BME280;66627;29.424;-98.496;2023-04-29T06:29:10;98987.51;;;14.04;46.74
77526;BME280;66627;29.424;-98.496;2023-04-29T06:31:34;98976.81;;;14.67;46.34
77526;BME280;66627;29.424;-98.496;2023-04-29T06:34:00;98990.49;;;14.50;46.38
77526;BME280;66627;29.424;-98.496;2023-04-29T06:38:50;98981.86;;;14.55;45.30
77526;BME280;66627;29.424;-98.496;2023-04-29T06:41:15;98981.75;;;13.76;46.45
77526;BME280;66627;29.424;-98.496;2023-04-29T06:43:40;98983.36;;;13.95;46.05
77526;BME280;66627;29.424;-98.496;2023-04-29T06:46:06;98988.62;;;14.40;45.97
77526;BME280;66627;29.424;-98.496;2023-04-29T06:48:31;98988.77;;;12.99;46.98
77526;BME280;66627;29.424;-98.496;2023-04-29T06:50:57;98991.44;;;13.55;46.76
77526;BME280;66627;29.424;-98.496;2023-04-29T06:53:22;98998.94;;;13.83;47.18
77526;BME280;66627;29.424;-98.496;2023-04-29T06:55:47;98988.44;;;13.85;46.69
77526;BME280;66627;29.424;-98.496;2023-04-29T06:58:11;98980.16;;;13.78;46.54
77526;BME280;66627;29.424;-98.496;2023-04-29T07:00:37;98973.10;;;14.22;46.54
77526;BME280;66627;29.424;-98.496;2023-04-29T07:03:02;98960.92;;;13.66;47.83
77526;BME280;66627;29.424;-98.496;2023-04-29T07:05:27;98962.66;;;13.75;46.16
77526;BME280;66627;29.424;-98.496;2023-04-29T07:07:53;98970.09;;;13.99;47.63
77526;BME280;66627;29.424;-98.496;2023-04-29T07:10:18;98977.18;;;13.70;47.43
77526;BME280;66627;29.424;-98.496;2023-04-29T07:12:43;98988.77;;;13.76;47.47
77526;BME280;66627;29.424;-98.496;2023-04-29T07:15:09;98992.20;;;13.60;46.30
77526;BME280;66627;29.424;-98.496;2023-04-29T07:17:33;98988.63;;;13.45;47.31
77526;BME280;66627;29.424;-98.496;2023-04-29T07:19:59;98993.32;;;13.75;46.99
77526;BME280;66627;29.424;-98.496;2023-04-29T07:22:24;98996.82;;;13.74;46.68
77526;BME280;66627;29.424;-98.496;2023-04-29T07:24:52;99002.96;;;13.91;45.89
77526;BME280;66627;29.424;-98.496;2023-04-29T07:27:14;99000.07;;;13.17;47.01
77526;BME280;66627;29.424;-98.496;2023-04-29T07:29:39;98993.23;;;13.01;48.76
77526;BME280;66627;29.424;-98.496;2023-04-29T07:32:05;98997.30;;;13.18;49.35
77526;BME280;66627;29.424;-98.496;2023-04-29T07:34:30;98995.14;;;14.05;46.44
77526;BME280;66627;29.424;-98.496;2023-04-29T07:36:55;98984.42;;;12.73;46.86
77526;BME280;66627;29.424;-98.496;2023-04-29T07:39:20;98985.50;;;13.15;46.92
77526;BME280;66627;29.424;-98.496;2023-04-29T07:41:45;98967.63;;;13.32;46.82
77526;BME280;66627;29.424;-98.496;2023-04-29T07:44:10;98969.26;;;13.36;46.39
77526;BME280;66627;29.424;-98.496;2023-04-29T07:46:36;98967.35;;;13.08;47.03
77526;BME280;66627;29.424;-98.496;2023-04-29T07:49:01;98967.54;;;13.76;45.72
77526;BME280;66627;29.424;-98.496;2023-04-29T07:51:26;98961.83;;;13.56;45.23
77526;BME280;66627;29.424;-98.496;2023-04-29T07:53:52;98956.16;;;13.07;45.76
77526;BME280;66627;29.424;-98.496;2023-04-29T07:56:16;98953.01;;;13.30;46.12
77526;BME280;66627;29.424;-98.496;2023-04-29T07:58:42;98939.14;;;13.43;46.00
77526;BME280;66627;29.424;-98.496;2023-04-29T08:01:07;98937.06;;;12.91;46.24
77526;BME280;66627;29.424;-98.496;2023-04-29T08:03:32;98936.67;;;12.64;45.78
77526;BME280;66627;29.424;-98.496;2023-04-29T08:06:01;98944.80;;;12.86;46.10
77526;BME280;66627;29.424;-98.496;2023-04-29T08:08:22;98939.47;;;12.50;46.59
77526;BME280;66627;29.424;-98.496;2023-04-29T08:10:48;98942.37;;;12.88;45.94
77526;BME280;66627;29.424;-98.496;2023-04-29T08:13:13;98946.63;;;12.72;46.87
77526;BME280;66627;29.424;-98.496;2023-04-29T08:15:38;98953.24;;;12.39;47.08
77526;BME280;66627;29.424;-98.496;2023-04-29T08:18:03;98957.57;;;12.69;46.78
77526;BME280;66627;29.424;-98.496;2023-04-29T08:20:29;98943.50;;;12.17;46.93
77526;BME280;66627;29.424;-98.496;2023-04-29T08:22:54;98944.08;;;12.89;45.70
77526;BME280;66627;29.424;-98.496;2023-04-29T08:25:19;98944.89;;;12.25;46.83
77526;BME280;66627;29.424;-98.496;2023-04-29T08:27:44;98944.65;;;12.86;45.74
77526;BME280;66627;29.424;-98.496;2023-04-29T08:30:10;98930.24;;;12.37;46.43
77526;BME280;66627;29.424;-98.496;2023-04-29T08:32:35;98932.68;;;12.75;46.64
77526;BME280;66627;29.424;-98.496;2023-04-29T08:35:00;98932.15;;;12.26;46.66
77526;BME280;66627;29.424;-98.496;2023-04-29T08:37:26;98927.56;;;11.81;46.42
77526;BME280;66627;29.424;-98.496;2023-04-29T08:39:50;98928.69;;;12.41;46.12
77526;BME280;66627;29.424;-98.496;2023-04-29T08:42:17;98932.76;;;12.92;45.92
77526;BME280;66627;29.424;-98.496;2023-04-29T08:44:42;98929.95;;;13.05;46.12
77526;BME280;66627;29.424;-98.496;2023-04-29T08:47:06;98926.69;;;13.17;45.33
77526;BME280;66627;29.424;-98.496;2023-04-29T08:49:32;98924.58;;;13.05;45.10
77526;BME280;66627;29.424;-98.496;2023-04-29T08:51:56;98937.54;;;12.94;45.79
77526;BME280;66627;29.424;-98.496;2023-04-29T08:54:22;98941.33;;;13.05;44.88
77526;BME280;66627;29.424;-98.496;2023-04-29T08:56:47;98944.45;;;12.34;45.76
77526;BME280;66627;29.424;-98.496;2023-04-29T08:59:14;98949.75;;;12.91;45.15
77526;BME280;66627;29.424;-98.496;2023-04-29T09:01:41;98955.25;;;13.23;45.22
77526;BME280;66627;29.424;-98.496;2023-04-29T09:04:11;98967.46;;;12.47;45.45
77526;BME280;66627;29.424;-98.496;2023-04-29T09:06:29;98975.42;;;12.67;45.94
77526;BME280;66627;29.424;-98.496;2023-04-29T09:08:53;98981.22;;;12.96;46.69
77526;BME280;66627;29.424;-98.496;2023-04-29T09:11:19;98980.39;;;13.24;45.22
77526;BME280;66627;29.424;-98.496;2023-04-29T09:13:43;98977.31;;;12.37;46.03
77526;BME280;66627;29.424;-98.496;2023-04-29T09:16:11;98977.10;;;12.99;45.14
77526;BME280;66627;29.424;-98.496;2023-04-29T09:18:44;98990.50;;;12.34;46.34
77526;BME280;66627;29.424;-98.496;2023-04-29T09:25:55;99002.73;;;12.61;46.06
77526;BME280;66627;29.424;-98.496;2023-04-29T09:28:15;99006.56;;;12.88;44.82
77526;BME280;66627;29.424;-98.496;2023-04-29T09:30:45;99010.02;;;12.92;45.78
77526;BME280;66627;29.424;-98.496;2023-04-29T09:33:14;99020.79;;;13.34;45.07
77526;BME280;66627;29.424;-98.496;2023-04-29T09:35:31;99028.73;;;12.78;47.46
77526;BME280;66627;29.424;-98.496;2023-04-29T09:38:10;99034.61;;;12.91;45.36
77526;BME280;66627;29.424;-98.496;2023-04-29T09:40:29;99038.11;;;13.35;45.05
77526;BME280;66627;29.424;-98.496;2023-04-29T09:42:46;99034.72;;;13.67;44.92
77526;BME280;66627;29.424;-98.496;2023-04-29T09:45:11;99032.17;;;13.39;44.77
77526;BME280;66627;29.424;-98.496;2023-04-29T09:47:37;99039.11;;;13.48;44.48
77526;BME280;66627;29.424;-98.496;2023-04-29T09:50:11;99046.96;;;13.50;44.23
77526;BME280;66627;29.424;-98.496;2023-04-29T09:54:52;99052.57;;;13.77;44.48
77526;BME280;66627;29.424;-98.496;2023-04-29T09:57:17;99050.60;;;13.28;44.77
77526;BME280;66627;29.424;-98.496;2023-04-29T09:59:43;99053.20;;;12.97;46.31
77526;BME280;66627;29.424;-98.496;2023-04-29T10:02:13;99054.86;;;13.74;45.88
77526;BME280;66627;29.424;-98.496;2023-04-29T10:04:34;99059.64;;;13.81;44.70
77526;BME280;66627;29.424;-98.496;2023-04-29T10:06:59;99063.10;;;14.10;44.54
77526;BME280;66627;29.424;-98.496;2023-04-29T10:09:23;99067.20;;;13.84;44.98
77526;BME280;66627;29.424;-98.496;2023-04-29T10:11:50;99065.86;;;13.67;45.53
77526;BME280;66627;29.424;-98.496;2023-04-29T10:14:15;99067.42;;;14.04;44.78
77526;BME280;66627;29.424;-98.496;2023-04-29T10:16:46;99068.00;;;14.16;45.58
77526;BME280;66627;29.424;-98.496;2023-04-29T10:19:07;99065.94;;;13.81;46.20
77526;BME280;66627;29.424;-98.496;2023-04-29T10:21:31;99060.88;;;13.73;45.83
77526;BME280;66627;29.424;-98.496;2023-04-29T10:23:57;99064.67;;;14.14;45.43
77526;BME280;66627;29.424;-98.496;2023-04-29T10:26:20;99073.05;;;13.85;46.53
77526;BME280;66627;29.424;-98.496;2023-04-29T10:28:47;99080.40;;;13.74;46.46
77526;BME280;66627;29.424;-98.496;2023-04-29T10:31:11;99079.27;;;13.40;45.95
77526;BME280;66627;29.424;-98.496;2023-04-29T10:33:36;99081.21;;;13.92;45.80
77526;BME280;66627;29.424;-98.496;2023-04-29T10:36:02;99075.32;;;13.08;47.03
77526;BME280;66627;29.424;-98.496;2023-04-29T10:38:30;99067.55;;;13.27;46.36
77526;BME280;66627;29.424;-98.496;2023-04-29T10:40:51;99066.68;;;12.85;47.31
77526;BME280;66627;29.424;-98.496;2023-04-29T10:43:21;99056.79;;;13.81;46.79
77526;BME280;66627;29.424;-98.496;2023-04-29T10:45:42;99052.38;;;13.76;46.31
77526;BME280;66627;29.424;-98.496;2023-04-29T10:48:12;99051.41;;;13.57;46.29
77526;BME280;66627;29.424;-98.496;2023-04-29T10:50:33;99052.52;;;13.90;45.68
77526;BME280;66627;29.424;-98.496;2023-04-29T10:53:00;99051.80;;;13.83;46.20
77526;BME280;66627;29.424;-98.496;2023-04-29T10:55:23;99052.75;;;13.87;45.82
77526;BME280;66627;29.424;-98.496;2023-04-29T10:57:48;99054.84;;;13.90;46.17
77526;BME280;66627;29.424;-98.496;2023-04-29T11:00:20;99049.72;;;14.01;45.91
77526;BME280;66627;29.424;-98.496;2023-04-29T11:02:38;99049.41;;;13.71;46.35
77526;BME280;66627;29.424;-98.496;2023-04-29T11:05:08;99053.20;;;13.27;47.34
77526;BME280;66627;29.424;-98.496;2023-04-29T11:07:30;99060.99;;;12.91;47.88
77526;BME280;66627;29.424;-98.496;2023-04-29T11:09:54;99061.12;;;13.13;47.09
77526;BME280;66627;29.424;-98.496;2023-04-29T11:12:20;99055.24;;;13.13;47.53
77526;BME280;66627;29.424;-98.496;2023-04-29T11:14:50;99047.77;;;13.41;47.28
77526;BME280;66627;29.424;-98.496;2023-04-29T11:17:11;99049.03;;;13.18;47.27
77526;BME280;66627;29.424;-98.496;2023-04-29T11:19:36;99050.18;;;12.95;47.61
77526;BME280;66627;29.424;-98.496;2023-04-29T11:22:13;99046.15;;;13.40;47.29
77526;BME280;66627;29.424;-98.496;2023-04-29T11:24:25;99053.58;;;12.83;48.37
77526;BME280;66627;29.424;-98.496;2023-04-29T11:26:52;99050.99;;;13.15;47.53
77526;BME280;66627;29.424;-98.496;2023-04-29T11:29:18;99047.45;;;13.07;48.37
77526;BME280;66627;29.424;-98.496;2023-04-29T11:31:41;99049.01;;;12.82;48.15
77526;BME280;66627;29.424;-98.496;2023-04-29T11:34:06;99048.56;;;12.81;47.98
77526;BME280;66627;29.424;-98.496;2023-04-29T11:36:32;99053.05;;;12.72;47.54
77526;BME280;66627;29.424;-98.496;2023-04-29T11:38:56;99052.66;;;12.59;47.74
77526;BME280;66627;29.424;-98.496;2023-04-29T11:41:22;99060.12;;;13.26;46.55
77526;BME280;66627;29.424;-98.496;2023-04-29T11:46:13;99065.60;;;12.74;47.75
77526;BME280;66627;29.424;-98.496;2023-04-29T11:48:46;99070.12;;;13.23;46.75
77526;BME280;66627;29.424;-98.496;2023-04-29T11:51:03;99070.77;;;13.19;46.56
77526;BME280;66627;29.424;-98.496;2023-04-29T11:53:28;99073.36;;;12.90;46.23
77526;BME280;66627;29.424;-98.496;2023-04-29T11:55:53;99083.87;;;12.14;48.06
77526;BME280;66627;29.424;-98.496;2023-04-29T11:58:21;99083.80;;;12.16;47.24
77526;BME280;66627;29.424;-98.496;2023-04-29T12:00:44;99086.02;;;12.57;45.74
77526;BME280;66627;29.424;-98.496;2023-04-29T12:05:35;99089.41;;;11.97;46.62
77526;BME280;66627;29.424;-98.496;2023-04-29T12:07:59;99098.02;;;12.62;45.50
77526;BME280;66627;29.424;-98.496;2023-04-29T12:10:24;99100.36;;;12.92;45.94
77526;BME280;66627;29.424;-98.496;2023-04-29T12:12:51;99100.81;;;12.74;45.16
77526;BME280;66627;29.424;-98.496;2023-04-29T12:15:15;99095.70;;;12.85;45.35
77526;BME280;66627;29.424;-98.496;2023-04-29T12:17:41;99102.54;;;12.63;46.38
77526;BME280;66627;29.424;-98.496;2023-04-29T12:20:07;99109.63;;;12.86;45.33
77526;BME280;66627;29.424;-98.496;2023-04-29T12:22:31;99115.92;;;12.95;45.38
77526;BME280;66627;29.424;-98.496;2023-04-29T12:24:56;99115.60;;;13.03;44.66
77526;BME280;66627;29.424;-98.496;2023-04-29T12:27:21;99123.44;;;12.99;46.55
77526;BME280;66627;29.424;-98.496;2023-04-29T12:29:46;99120.37;;;13.64;44.15
77526;BME280;66627;29.424;-98.496;2023-04-29T12:32:20;99120.11;;;12.98;44.76
77526;BME280;66627;29.424;-98.496;2023-04-29T12:34:39;99122.19;;;13.49;44.74
77526;BME280;66627;29.424;-98.496;2023-04-29T12:37:02;99127.67;;;13.78;44.50
77526;BME280;66627;29.424;-98.496;2023-04-29T12:39:28;99132.74;;;13.48;45.13
77526;BME280;66627;29.424;-98.496;2023-04-29T12:41:56;99131.78;;;13.14;46.63
77526;BME280;66627;29.424;-98.496;2023-04-29T12:44:18;99141.37;;;12.88;44.75